sensor_id;sensor_type;location;lat;lon;timestamp;pressure;altitude;pressure_sealevel;temperature;humidity
72096;BME280;59968;51.084;16.748;2023-09-18T04:03:09;100025.25;;;16.89;80.80
72096;BME280;59968;51.084;16.748;2023-09-18T04:05:37;100027.61;;;16.88;80.72
72096;BME280;59968;51.084;16.748;2023-09-18T04:08:05;100029.17;;;16.88;80.47
72096;BME280;59968;51.084;16.748;2023-09-18T04:10:32;100030.41;;;16.87;80.43
72096;BME280;59968;51.084;16.748;2023-09-18T04:13:00;100029.63;;;16.86;80.28
72096;BME280;59968;51.084;16.748;2023-09-18T04:15:30;100025.44;;;16.84;80.27
72096;BME280;59968;51.084;16.748;2023-09-18T04:18:00;100018.75;;;16.82;80.63
72096;BME280;59968;51.084;16.748;2023-09-18T04:20:27;100017.30;;;16.82;81.01
72096;BME280;59968;51.084;16.748;2023-09-18T04:23:20;100014.23;;;16.84;81.43
72096;BME280;59968;51.084;16.748;2023-09-18T04:25:50;100008.81;;;16.86;81.44
72096;BME280;59968;51.084;16.748;2023-09-18T04:28:19;100006.66;;;16.88;81.65
72096;BME280;59968;51.084;16.748;2023-09-18T04:30:46;100003.84;;;16.89;81.84
72096;BME280;59968;51.084;16.748;2023-09-18T04:33:15;100003.04;;;16.92;81.85
72096;BME280;59968;51.084;16.748;2023-09-18T04:35:43;100003.08;;;16.94;81.88
72096;BME280;59968;51.084;16.748;2023-09-18T04:38:12;100001.69;;;16.99;81.88
72096;BME280;59968;51.084;16.748;2023-09-18T04:40:42;100003.61;;;17.01;81.79
72096;BME280;59968;51.084;16.748;2023-09-18T04:43:11;100002.09;;;17.04;81.84
72096;BME280;59968;51.084;16.748;2023-09-18T04:45:39;99998.68;;;17.07;81.95
72096;BME280;59968;51.084;16.748;2023-09-18T04:48:08;99986.71;;;17.03;82.02
72096;BME280;59968;51.084;16.748;2023-09-18T04:50:35;100001.36;;;17.14;82.07
72096;BME280;59968;51.084;16.748;2023-09-18T04:53:04;100004.86;;;17.17;81.98
72096;BME280;59968;51.084;16.748;2023-09-18T04:55:35;100003.30;;;17.21;82.06
72096;BME280;59968;51.084;16.748;2023-09-18T04:58:05;100002.21;;;17.25;82.04
72096;BME280;59968;51.084;16.748;2023-09-18T05:00:34;99999.60;;;17.29;82.02
72096;BME280;59968;51.084;16.748;2023-09-18T05:03:01;99998.94;;;17.35;81.95
72096;BME280;59968;51.084;16.748;2023-09-18T05:05:32;99986.42;;;17.39;81.92
72096;BME280;59968;51.084;16.748;2023-09-18T05:08:02;99984.67;;;17.45;81.99
72096;BME280;59968;51.084;16.748;2023-09-18T05:10:34;99988.06;;;17.50;81.93
72096;BME280;59968;51.084;16.748;2023-09-18T05:13:02;99987.33;;;17.57;81.81
72096;BME280;59968;51.084;16.748;2023-09-18T05:15:30;99985.81;;;17.60;81.71
72096;BME280;59968;51.084;16.748;2023-09-18T05:17:58;99986.88;;;17.65;81.61
72096;BME280;59968;51.084;16.748;2023-09-18T05:20:28;99981.55;;;17.67;81.55
72096;BME280;59968;51.084;16.748;2023-09-18T05:22:57;99979.37;;;17.73;81.46
72096;BME280;59968;51.084;16.748;2023-09-18T05:25:27;99977.65;;;17.79;81.41
72096;BME280;59968;51.084;16.748;2023-09-18T05:28:00;99975.23;;;17.86;81.30
72096;BME280;59968;51.084;16.748;2023-09-18T05:30:35;99975.89;;;17.93;81.15
72096;BME280;59968;51.084;16.748;2023-09-18T05:33:05;99973.49;;;17.99;81.02
72096;BME280;59968;51.084;16.748;2023-09-18T05:35:41;99975.27;;;18.07;81.03
72096;BME280;59968;51.084;16.748;2023-09-18T05:38:11;99974.54;;;18.16;80.97
72096;BME280;59968;51.084;16.748;2023-09-18T05:40:40;99971.77;;;18.22;80.82
72096;BME280;59968;51.084;16.748;2023-09-18T05:43:07;99968.30;;;18.32;80.78
72096;BME280;59968;51.084;16.748;2023-09-18T05:45:35;99968.19;;;18.42;80.64
72096;BME280;59968;51.084;16.748;2023-09-18T05:48:03;99970.67;;;18.53;80.49
72096;BME280;59968;51.084;16.748;2023-09-18T05:50:31;99969.05;;;18.61;80.27
72096;BME280;59968;51.084;16.748;2023-09-18T05:52:59;99964.91;;;18.71;80.16
72096;BME280;59968;51.084;16.748;2023-09-18T05:55:27;99964.53;;;18.82;79.84
72096;BME280;59968;51.084;16.748;2023-09-18T05:57:54;99964.49;;;18.90;79.61
72096;BME280;59968;51.084;16.748;2023-09-18T06:00:21;99959.52;;;18.99;79.42
72096;BME280;59968;51.084;16.748;2023-09-18T06:02:49;99953.84;;;19.06;79.29
72096;BME280;59968;51.084;16.748;2023-09-18T06:05:18;99955.48;;;19.14;79.05
72096;BME280;59968;51.084;16.748;2023-09-18T06:07:49;99956.41;;;19.22;78.91
72096;BME280;59968;51.084;16.748;2023-09-18T06:10:17;99954.70;;;19.32;78.78
72096;BME280;59968;51.084;16.748;2023-09-18T06:12:45;99953.61;;;19.41;78.56
72096;BME280;59968;51.084;16.748;2023-09-18T06:15:12;99956.15;;;19.51;78.48
72096;BME280;59968;51.084;16.748;2023-09-18T06:17:41;99951.93;;;19.59;78.15
72096;BME280;59968;51.084;16.748;2023-09-18T06:20:10;99948.02;;;19.68;78.04
72096;BME280;59968;51.084;16.748;2023-09-18T06:22:40;99948.90;;;19.78;77.96
72096;BME280;59968;51.084;16.748;2023-09-18T06:25:08;99947.10;;;19.89;77.95
72096;BME280;59968;51.084;16.748;2023-09-18T06:27:40;99940.98;;;20.00;77.57
72096;BME280;59968;51.084;16.748;2023-09-18T06:30:07;99943.27;;;20.10;77.19
72096;BME280;59968;51.084;16.748;2023-09-18T06:32:35;99944.98;;;20.20;76.94
72096;BME280;59968;51.084;16.748;2023-09-18T06:35:04;99940.40;;;20.30;76.92
72096;BME280;59968;51.084;16.748;2023-09-18T06:37:33;99935.40;;;20.40;76.48
72096;BME280;59968;51.084;16.748;2023-09-18T06:40:00;99932.63;;;20.49;76.14
72096;BME280;59968;51.084;16.748;2023-09-18T06:42:31;99929.16;;;20.59;76.10
72096;BME280;59968;51.084;16.748;2023-09-18T06:44:58;99933.84;;;20.71;76.11
72096;BME280;59968;51.084;16.748;2023-09-18T06:47:26;99917.02;;;20.75;75.88
72096;BME280;59968;51.084;16.748;2023-09-18T06:49:53;99929.13;;;20.95;75.53
72096;BME280;59968;51.084;16.748;2023-09-18T06:52:21;99912.77;;;21.00;75.01
72096;BME280;59968;51.084;16.748;2023-09-18T06:54:48;99926.70;;;21.17;75.06
72096;BME280;59968;51.084;16.748;2023-09-18T06:57:16;99931.70;;;21.28;74.69
72096;BME280;59968;51.084;16.748;2023-09-18T06:59:43;99930.19;;;21.38;74.51
72096;BME280;59968;51.084;16.748;2023-09-18T07:02:11;99931.02;;;21.46;74.32
72096;BME280;59968;51.084;16.748;2023-09-18T07:04:41;99929.66;;;21.57;74.14
72096;BME280;59968;51.084;16.748;2023-09-18T07:07:14;99932.73;;;21.67;73.84
72096;BME280;59968;51.084;16.748;2023-09-18T07:09:42;99934.11;;;21.78;73.37
72096;BME280;59968;51.084;16.748;2023-09-18T07:12:29;99928.22;;;21.92;73.04
72096;BME280;59968;51.084;16.748;2023-09-18T07:14:56;99924.33;;;22.06;72.56
72096;BME280;59968;51.084;16.748;2023-09-18T07:17:23;99924.58;;;22.18;72.10
72096;BME280;59968;51.084;16.748;2023-09-18T07:19:50;99921.73;;;22.33;71.74
72096;BME280;59968;51.084;16.748;2023-09-18T07:22:18;99921.80;;;22.46;71.25
72096;BME280;59968;51.084;16.748;2023-09-18T07:24:45;99923.61;;;22.57;70.57
72096;BME280;59968;51.084;16.748;2023-09-18T07:27:13;99924.04;;;22.68;70.26
72096;BME280;59968;51.084;16.748;2023-09-18T07:29:41;99920.88;;;22.79;70.06
72096;BME280;59968;51.084;16.748;2023-09-18T07:32:08;99922.89;;;22.89;69.33
72096;BME280;59968;51.084;16.748;2023-09-18T07:34:36;99918.24;;;22.99;69.36
72096;BME280;59968;51.084;16.748;2023-09-18T07:37:04;99917.04;;;23.10;68.64
72096;BME280;59968;51.084;16.748;2023-09-18T07:39:31;99910.59;;;23.20;68.38
72096;BME280;59968;51.084;16.748;2023-09-18T07:41:59;99903.59;;;23.30;68.24
72096;BME280;59968;51.084;16.748;2023-09-18T07:44:27;99899.58;;;23.41;68.14
72096;BME280;59968;51.084;16.748;2023-09-18T07:46:54;99900.53;;;23.50;67.67
72096;BME280;59968;51.084;16.748;2023-09-18T07:49:21;99903.75;;;23.56;66.78
72096;BME280;59968;51.084;16.748;2023-09-18T07:51:48;99903.27;;;23.64;66.66
72096;BME280;59968;51.084;16.748;2023-09-18T07:54:16;99899.02;;;23.73;66.44
72096;BME280;59968;51.084;16.748;2023-09-18T07:56:43;99895.77;;;23.83;66.21
72096;BME280;59968;51.084;16.748;2023-09-18T07:59:10;99896.57;;;23.91;65.57
72096;BME280;59968;51.084;16.748;2023-09-18T08:01:38;99891.80;;;23.99;65.29
72096;BME280;59968;51.084;16.748;2023-09-18T08:04:05;99892.66;;;24.05;64.60
72096;BME280;59968;51.084;16.748;2023-09-18T08:06:33;99889.42;;;24.10;64.42
72096;BME280;59968;51.084;16.748;2023-09-18T08:09:00;99892.13;;;24.17;64.49
72096;BME280;59968;51.084;16.748;2023-09-18T08:11:28;99883.80;;;24.25;64.19
72096;BME280;59968;51.084;16.748;2023-09-18T08:13:55;99879.91;;;24.33;64.11
72096;BME280;59968;51.084;16.748;2023-09-18T08:16:22;99877.33;;;24.39;63.71
72096;BME280;59968;51.084;16.748;2023-09-18T08:18:49;99873.64;;;24.47;63.34
72096;BME280;59968;51.084;16.748;2023-09-18T08:21:17;99876.60;;;24.54;63.56
72096;BME280;59968;51.084;16.748;2023-09-18T08:23:45;99871.79;;;24.62;62.90
72096;BME280;59968;51.084;16.748;2023-09-18T08:26:13;99868.91;;;24.70;62.93
72096;BME280;59968;51.084;16.748;2023-09-18T08:28:41;99867.68;;;24.78;62.56
72096;BME280;59968;51.084;16.748;2023-09-18T08:31:11;99866.87;;;24.87;62.43
72096;BME280;59968;51.084;16.748;2023-09-18T08:33:38;99861.83;;;24.96;62.42
72096;BME280;59968;51.084;16.748;2023-09-18T08:36:05;99860.48;;;25.03;61.89
72096;BME280;59968;51.084;16.748;2023-09-18T08:38:32;99859.26;;;25.11;61.79
72096;BME280;59968;51.084;16.748;2023-09-18T08:41:00;99858.08;;;25.20;61.84
72096;BME280;59968;51.084;16.748;2023-09-18T08:43:29;99854.02;;;25.29;61.23
72096;BME280;59968;51.084;16.748;2023-09-18T08:45:57;99850.89;;;25.37;60.52
72096;BME280;59968;51.084;16.748;2023-09-18T08:48:29;99851.17;;;25.44;60.48
72096;BME280;59968;51.084;16.748;2023-09-18T08:51:03;99846.48;;;25.56;60.57
72096;BME280;59968;51.084;16.748;2023-09-18T08:53:34;99841.45;;;25.65;60.13
72096;BME280;59968;51.084;16.748;2023-09-18T08:56:04;99839.71;;;25.74;59.76
72096;BME280;59968;51.084;16.748;2023-09-18T08:58:33;99835.98;;;25.84;59.19
72096;BME280;59968;51.084;16.748;2023-09-18T09:01:03;99831.38;;;25.95;58.91
72096;BME280;59968;51.084;16.748;2023-09-18T09:03:31;99833.24;;;26.06;59.09
72096;BME280;59968;51.084;16.748;2023-09-18T09:06:01;99828.52;;;26.15;58.55
72096;BME280;59968;51.084;16.748;2023-09-18T09:11:58;99828.92;;;26.33;57.78
72096;BME280;59968;51.084;16.748;2023-09-18T09:14:26;99831.16;;;26.40;57.88
72096;BME280;59968;51.084;16.748;2023-09-18T09:16:57;99828.16;;;26.52;58.14
72096;BME280;59968;51.084;16.748;2023-09-18T09:19:32;99820.12;;;26.64;57.82
72096;BME280;59968;51.084;16.748;2023-09-18T09:22:00;99818.38;;;26.74;57.09
72096;BME280;59968;51.084;16.748;2023-09-18T09:24:42;99809.48;;;26.73;56.76
72096;BME280;59968;51.084;16.748;2023-09-18T09:27:10;99812.25;;;26.78;56.90
72096;BME280;59968;51.084;16.748;2023-09-18T09:29:38;99802.27;;;26.80;56.83
72096;BME280;59968;51.084;16.748;2023-09-18T09:32:16;99806.81;;;26.90;56.61
72096;BME280;59968;51.084;16.748;2023-09-18T09:34:44;99806.05;;;26.98;56.54
72096;BME280;59968;51.084;16.748;2023-09-18T09:37:14;99802.81;;;27.08;55.81
72096;BME280;59968;51.084;16.748;2023-09-18T09:39:51;99800.97;;;27.16;55.57
72096;BME280;59968;51.084;16.748;2023-09-18T09:42:19;99796.54;;;27.24;55.11
72096;BME280;59968;51.084;16.748;2023-09-18T09:45:04;99791.66;;;27.30;55.35
72096;BME280;59968;51.084;16.748;2023-09-18T09:47:35;99788.49;;;27.33;55.12
72096;BME280;59968;51.084;16.748;2023-09-18T09:50:07;99793.86;;;27.38;55.42
72096;BME280;59968;51.084;16.748;2023-09-18T09:52:44;99791.68;;;27.47;55.19
72096;BME280;59968;51.084;16.748;2023-09-18T09:55:33;99785.08;;;27.55;55.35
72096;BME280;59968;51.084;16.748;2023-09-18T09:58:03;99786.64;;;27.67;55.44
72096;BME280;59968;51.084;16.748;2023-09-18T10:00:35;99780.52;;;27.79;55.16
72096;BME280;59968;51.084;16.748;2023-09-18T10:03:13;99777.63;;;27.86;54.79
72096;BME280;59968;51.084;16.748;2023-09-18T10:05:45;99776.30;;;27.88;54.20
72096;BME280;59968;51.084;16.748;2023-09-18T10:08:18;99774.67;;;27.91;53.62
72096;BME280;59968;51.084;16.748;2023-09-18T10:10:52;99766.21;;;27.93;53.76
72096;BME280;59968;51.084;16.748;2023-09-18T10:13:33;99771.48;;;27.93;53.85
72096;BME280;59968;51.084;16.748;2023-09-18T10:16:05;99775.15;;;28.00;54.53
72096;BME280;59968;51.084;16.748;2023-09-18T10:19:11;99777.19;;;28.05;53.58
72096;BME280;59968;51.084;16.748;2023-09-18T10:21:59;99774.42;;;28.08;53.30
72096;BME280;59968;51.084;16.748;2023-09-18T10:24:28;99771.40;;;28.10;53.78
72096;BME280;59968;51.084;16.748;2023-09-18T10:27:01;99771.48;;;28.16;53.53
72096;BME280;59968;51.084;16.748;2023-09-18T10:29:33;99772.23;;;28.20;53.51
72096;BME280;59968;51.084;16.748;2023-09-18T10:32:05;99768.88;;;28.28;52.93
72096;BME280;59968;51.084;16.748;2023-09-18T10:34:35;99771.59;;;28.37;52.56
72096;BME280;59968;51.084;16.748;2023-09-18T10:37:04;99771.27;;;28.41;51.69
72096;BME280;59968;51.084;16.748;2023-09-18T10:39:38;99766.78;;;28.44;51.07
72096;BME280;59968;51.084;16.748;2023-09-18T10:42:09;99759.83;;;28.51;50.94
72096;BME280;59968;51.084;16.748;2023-09-18T10:44:37;99753.08;;;28.58;49.93
72096;BME280;59968;51.084;16.748;2023-09-18T10:47:10;99747.50;;;28.60;49.37
72096;BME280;59968;51.084;16.748;2023-09-18T10:49:39;99740.65;;;28.64;48.96
72096;BME280;59968;51.084;16.748;2023-09-18T10:52:11;99744.77;;;28.68;49.00
72096;BME280;59968;51.084;16.748;2023-09-18T10:54:39;99738.46;;;28.69;48.60
72096;BME280;59968;51.084;16.748;2023-09-18T10:57:07;99736.02;;;28.67;48.66
72096;BME280;59968;51.084;16.748;2023-09-18T10:59:43;99733.27;;;28.69;48.45
72096;BME280;59968;51.084;16.748;2023-09-18T11:02:14;99737.59;;;28.68;48.38
72096;BME280;59968;51.084;16.748;2023-09-18T11:04:44;99729.42;;;28.62;48.52
72096;BME280;59968;51.084;16.748;2023-09-18T11:07:22;99731.52;;;28.61;48.70
72096;BME280;59968;51.084;16.748;2023-09-18T11:09:51;99725.17;;;28.62;48.88
72096;BME280;59968;51.084;16.748;2023-09-18T11:12:18;99725.67;;;28.69;48.49
72096;BME280;59968;51.084;16.748;2023-09-18T11:14:50;99722.96;;;28.78;48.46
72096;BME280;59968;51.084;16.748;2023-09-18T11:20:17;99720.40;;;28.95;48.46
72096;BME280;59968;51.084;16.748;2023-09-18T11:25:40;99709.38;;;29.10;48.98
72096;BME280;59968;51.084;16.748;2023-09-18T11:28:25;99694.62;;;29.17;48.02
72096;BME280;59968;51.084;16.748;2023-09-18T11:30:57;99685.96;;;29.22;47.90
72096;BME280;59968;51.084;16.748;2023-09-18T11:33:37;99681.59;;;29.23;48.01
72096;BME280;59968;51.084;16.748;2023-09-18T11:36:05;99675.70;;;29.28;47.80
72096;BME280;59968;51.084;16.748;2023-09-18T11:38:35;99675.41;;;29.32;47.81
72096;BME280;59968;51.084;16.748;2023-09-18T11:41:25;99671.50;;;29.38;47.91
72096;BME280;59968;51.084;16.748;2023-09-18T11:46:48;99670.71;;;29.48;47.87
72096;BME280;59968;51.084;16.748;2023-09-18T11:49:22;99668.90;;;29.53;47.25
72096;BME280;59968;51.084;16.748;2023-09-18T11:51:57;99661.84;;;29.56;44.89
72096;BME280;59968;51.084;16.748;2023-09-18T11:54:26;99660.39;;;29.52;44.30
72096;BME280;59968;51.084;16.748;2023-09-18T11:56:54;99658.66;;;29.48;44.49
72096;BME280;59968;51.084;16.748;2023-09-18T11:59:39;99648.84;;;29.44;43.41
72096;BME280;59968;51.084;16.748;2023-09-18T12:02:29;99644.18;;;29.36;43.47
72096;BME280;59968;51.084;16.748;2023-09-18T12:05:11;99642.77;;;29.30;44.08
72096;BME280;59968;51.084;16.748;2023-09-18T12:07:43;99638.42;;;29.28;44.15
72096;BME280;59968;51.084;16.748;2023-09-18T12:10:19;99643.51;;;29.27;44.49
72096;BME280;59968;51.084;16.748;2023-09-18T12:12:50;99645.41;;;29.28;44.57
72096;BME280;59968;51.084;16.748;2023-09-18T12:15:18;99650.65;;;29.26;45.06
72096;BME280;59968;51.084;16.748;2023-09-18T12:17:47;99651.56;;;29.26;45.25
72096;BME280;59968;51.084;16.748;2023-09-18T12:20:16;99645.70;;;29.25;45.44
72096;BME280;59968;51.084;16.748;2023-09-18T12:22:48;99645.52;;;29.24;46.36
72096;BME280;59968;51.084;16.748;2023-09-18T12:25:18;99638.15;;;29.21;46.10
72096;BME280;59968;51.084;16.748;2023-09-18T12:27:45;99633.17;;;29.16;46.27
72096;BME280;59968;51.084;16.748;2023-09-18T12:30:13;99620.30;;;29.17;46.51
72096;BME280;59968;51.084;16.748;2023-09-18T12:32:52;99617.08;;;29.19;46.49
72096;BME280;59968;51.084;16.748;2023-09-18T12:35:21;99619.23;;;29.18;45.68
72096;BME280;59968;51.084;16.748;2023-09-18T12:37:51;99619.75;;;29.10;45.87
72096;BME280;59968;51.084;16.748;2023-09-18T12:40:25;99620.45;;;29.04;45.90
72096;BME280;59968;51.084;16.748;2023-09-18T12:42:55;99625.42;;;29.01;46.73
72096;BME280;59968;51.084;16.748;2023-09-18T12:45:27;99632.59;;;28.96;46.68
72096;BME280;59968;51.084;16.748;2023-09-18T12:47:55;99638.89;;;28.94;46.89
72096;BME280;59968;51.084;16.748;2023-09-18T12:50:24;99641.48;;;28.91;47.11
72096;BME280;59968;51.084;16.748;2023-09-18T12:52:52;99638.45;;;28.88;47.62
72096;BME280;59968;51.084;16.748;2023-09-18T12:55:21;99631.67;;;28.85;48.03
72096;BME280;59968;51.084;16.748;2023-09-18T12:57:50;99637.10;;;28.84;47.68
72096;BME280;59968;51.084;16.748;2023-09-18T13:00:21;99631.27;;;28.83;47.53
72096;BME280;59968;51.084;16.748;2023-09-18T13:02:49;99628.66;;;28.80;47.62
72096;BME280;59968;51.084;16.748;2023-09-18T13:05:24;99624.60;;;28.82;47.68
72096;BME280;59968;51.084;16.748;2023-09-18T13:08:05;99617.42;;;28.84;47.65
72096;BME280;59968;51.084;16.748;2023-09-18T13:10:44;99612.11;;;28.84;47.78
72096;BME280;59968;51.084;16.748;2023-09-18T13:13:20;99613.35;;;28.81;47.42
72096;BME280;59968;51.084;16.748;2023-09-18T13:15:49;99614.97;;;28.75;48.13
72096;BME280;59968;51.084;16.748;2023-09-18T13:18:22;99608.61;;;28.78;48.05
72096;BME280;59968;51.084;16.748;2023-09-18T13:20:51;99608.45;;;28.82;47.99
72096;BME280;59968;51.084;16.748;2023-09-18T13:23:19;99610.27;;;28.86;48.01
72096;BME280;59968;51.084;16.748;2023-09-18T13:25:49;99617.23;;;28.87;48.01
72096;BME280;59968;51.084;16.748;2023-09-18T13:28:17;99613.52;;;28.87;48.03
72096;BME280;59968;51.084;16.748;2023-09-18T13:30:48;99604.48;;;28.87;48.23
72096;BME280;59968;51.084;16.748;2023-09-18T13:33:17;99600.25;;;28.83;48.41
72096;BME280;59968;51.084;16.748;2023-09-18T13:35:46;99593.33;;;28.72;48.13
72096;BME280;59968;51.084;16.748;2023-09-18T13:38:14;99597.17;;;28.66;48.14
72096;BME280;59968;51.084;16.748;2023-09-18T13:40:43;99597.98;;;28.54;48.14
72096;BME280;59968;51.084;16.748;2023-09-18T13:43:12;99593.13;;;28.43;48.45
72096;BME280;59968;51.084;16.748;2023-09-18T13:45:41;99592.71;;;28.30;48.80
72096;BME280;59968;51.084;16.748;2023-09-18T13:48:09;99597.67;;;28.16;49.09
72096;BME280;59968;51.084;16.748;2023-09-18T13:50:37;99601.18;;;28.07;49.49
72096;BME280;59968;51.084;16.748;2023-09-18T13:53:06;99593.23;;;27.97;49.88
72096;BME280;59968;51.084;16.748;2023-09-18T13:55:35;99594.14;;;27.89;49.99
72096;BME280;59968;51.084;16.748;2023-09-18T13:58:04;99586.86;;;27.89;50.26
72096;BME280;59968;51.084;16.748;2023-09-18T14:00:32;99588.30;;;27.90;50.33
72096;BME280;59968;51.084;16.748;2023-09-18T14:03:00;99586.30;;;27.91;50.51
72096;BME280;59968;51.084;16.748;2023-09-18T14:05:30;99581.30;;;27.94;50.52
72096;BME280;59968;51.084;16.748;2023-09-18T14:07:58;99579.80;;;27.97;50.30
72096;BME280;59968;51.084;16.748;2023-09-18T14:10:27;99574.69;;;28.00;50.22
72096;BME280;59968;51.084;16.748;2023-09-18T14:12:55;99570.14;;;28.01;50.21
72096;BME280;59968;51.084;16.748;2023-09-18T14:15:24;99569.45;;;28.04;50.62
72096;BME280;59968;51.084;16.748;2023-09-18T14:17:52;99563.45;;;28.08;50.38
72096;BME280;59968;51.084;16.748;2023-09-18T14:20:20;99559.75;;;28.13;50.34
72096;BME280;59968;51.084;16.748;2023-09-18T14:22:48;99558.27;;;28.18;50.36
72096;BME280;59968;51.084;16.748;2023-09-18T14:25:19;99554.64;;;28.21;50.02
72096;BME280;59968;51.084;16.748;2023-09-18T14:27:48;99559.73;;;28.24;50.11
72096;BME280;59968;51.084;16.748;2023-09-18T14:30:16;99559.04;;;28.28;50.37
72096;BME280;59968;51.084;16.748;2023-09-18T14:32:43;99551.04;;;28.28;49.95
72096;BME280;59968;51.084;16.748;2023-09-18T14:35:11;99546.96;;;28.25;49.56
72096;BME280;59968;51.084;16.748;2023-09-18T14:37:41;99544.48;;;28.21;49.84
72096;BME280;59968;51.084;16.748;2023-09-18T14:40:10;99541.34;;;28.21;49.88
72096;BME280;59968;51.084;16.748;2023-09-18T14:42:40;99537.56;;;28.20;49.96
72096;BME280;59968;51.084;16.748;2023-09-18T14:45:08;99539.02;;;28.18;50.11
72096;BME280;59968;51.084;16.748;2023-09-18T14:47:37;99542.95;;;28.20;50.08
72096;BME280;59968;51.084;16.748;2023-09-18T14:50:07;99543.95;;;28.20;49.98
72096;BME280;59968;51.084;16.748;2023-09-18T14:52:38;99546.25;;;28.18;50.12
72096;BME280;59968;51.084;16.748;2023-09-18T14:55:06;99541.29;;;28.16;50.00
72096;BME280;59968;51.084;16.748;2023-09-18T14:57:40;99533.99;;;28.12;49.89
72096;BME280;59968;51.084;16.748;2023-09-18T15:00:09;99532.16;;;28.10;49.68
72096;BME280;59968;51.084;16.748;2023-09-18T15:02:40;99531.92;;;28.08;50.21
72096;BME280;59968;51.084;16.748;2023-09-18T15:05:09;99532.98;;;28.10;50.68
72096;BME280;59968;51.084;16.748;2023-09-18T15:07:39;99536.54;;;28.12;50.88
72096;BME280;59968;51.084;16.748;2023-09-18T15:10:08;99532.42;;;28.12;50.78
72096;BME280;59968;51.084;16.748;2023-09-18T15:12:37;99531.18;;;28.11;50.46
72096;BME280;59968;51.084;16.748;2023-09-18T15:15:05;99526.92;;;28.09;50.65
72096;BME280;59968;51.084;16.748;2023-09-18T15:17:33;99521.61;;;28.07;50.67
72096;BME280;59968;51.084;16.748;2023-09-18T15:20:01;99522.96;;;28.07;50.44
72096;BME280;59968;51.084;16.748;2023-09-18T15:22:30;99519.28;;;28.04;50.54
72096;BME280;59968;51.084;16.748;2023-09-18T15:24:58;99517.24;;;28.03;50.35
72096;BME280;59968;51.084;16.748;2023-09-18T15:27:28;99517.62;;;28.01;50.37
72096;BME280;59968;51.084;16.748;2023-09-18T15:29:55;99514.02;;;27.97;50.55
72096;BME280;59968;51.084;16.748;2023-09-18T15:32:22;99509.81;;;27.93;50.26
72096;BME280;59968;51.084;16.748;2023-09-18T15:34:50;99510.27;;;27.87;50.27
72096;BME280;59968;51.084;16.748;2023-09-18T15:37:18;99506.66;;;27.84;50.64
72096;BME280;59968;51.084;16.748;2023-09-18T15:39:47;99506.83;;;27.87;50.82
72096;BME280;59968;51.084;16.748;2023-09-18T15:42:15;99501.66;;;27.79;50.88
72096;BME280;59968;51.084;16.748;2023-09-18T15:44:43;99502.39;;;27.74;50.66
72096;BME280;59968;51.084;16.748;2023-09-18T15:47:13;99498.14;;;27.67;50.90
72096;BME280;59968;51.084;16.748;2023-09-18T15:49:41;99493.28;;;27.63;51.09
72096;BME280;59968;51.084;16.748;2023-09-18T15:52:10;99491.02;;;27.58;50.96
72096;BME280;59968;51.084;16.748;2023-09-18T15:54:39;99491.56;;;27.53;51.32
72096;BME280;59968;51.084;16.748;2023-09-18T15:57:08;99492.19;;;27.47;51.56
72096;BME280;59968;51.084;16.748;2023-09-18T15:59:37;99487.33;;;27.40;51.61
72096;BME280;59968;51.084;16.748;2023-09-18T16:02:06;99485.57;;;27.33;51.71
72096;BME280;59968;51.084;16.748;2023-09-18T16:04:35;99490.36;;;27.24;52.13
72096;BME280;59968;51.084;16.748;2023-09-18T16:07:07;99495.27;;;27.14;52.38
72096;BME280;59968;51.084;16.748;2023-09-18T16:09:39;99495.02;;;27.05;52.58
72096;BME280;59968;51.084;16.748;2023-09-18T16:12:07;99498.01;;;26.96;52.85
72096;BME280;59968;51.084;16.748;2023-09-18T16:14:36;99498.17;;;26.89;52.92
72096;BME280;59968;51.084;16.748;2023-09-18T16:17:04;99498.87;;;26.82;53.03
72096;BME280;59968;51.084;16.748;2023-09-18T16:19:32;99500.23;;;26.77;53.23
72096;BME280;59968;51.084;16.748;2023-09-18T16:22:00;99495.84;;;26.71;53.28
72096;BME280;59968;51.084;16.748;2023-09-18T16:24:27;99494.89;;;26.67;53.55
72096;BME280;59968;51.084;16.748;2023-09-18T16:26:55;99489.23;;;26.62;53.62
72096;BME280;59968;51.084;16.748;2023-09-18T16:29:26;99489.12;;;26.58;53.86
72096;BME280;59968;51.084;16.748;2023-09-18T16:31:55;99487.10;;;26.55;53.89
72096;BME280;59968;51.084;16.748;2023-09-18T16:34:23;99488.13;;;26.52;53.94
72096;BME280;59968;51.084;16.748;2023-09-18T16:36:52;99489.38;;;26.47;54.07
72096;BME280;59968;51.084;16.748;2023-09-18T16:39:19;99486.77;;;26.43;54.27
72096;BME280;59968;51.084;16.748;2023-09-18T16:41:52;99485.54;;;26.37;54.30
72096;BME280;59968;51.084;16.748;2023-09-18T16:44:19;99485.80;;;26.31;54.47
72096;BME280;59968;51.084;16.748;2023-09-18T16:46:47;99483.34;;;26.24;54.80
72096;BME280;59968;51.084;16.748;2023-09-18T16:49:15;99476.21;;;26.13;54.90
72096;BME280;59968;51.084;16.748;2023-09-18T16:51:50;99473.24;;;26.03;55.10
72096;BME280;59968;51.084;16.748;2023-09-18T16:54:20;99478.16;;;25.93;55.19
72096;BME280;59968;51.084;16.748;2023-09-18T16:56:48;99478.20;;;25.82;55.51
72096;BME280;59968;51.084;16.748;2023-09-18T16:59:16;99475.88;;;25.73;55.64
72096;BME280;59968;51.084;16.748;2023-09-18T17:01:45;99475.46;;;25.66;55.88
72096;BME280;59968;51.084;16.748;2023-09-18T17:04:12;99474.84;;;25.59;56.14
72096;BME280;59968;51.084;16.748;2023-09-18T17:06:41;99472.26;;;25.53;56.29
72096;BME280;59968;51.084;16.748;2023-09-18T17:09:10;99476.21;;;25.46;56.52
72096;BME280;59968;51.084;16.748;2023-09-18T17:11:38;99471.23;;;25.39;56.74
72096;BME280;59968;51.084;16.748;2023-09-18T17:14:06;99471.59;;;25.34;56.93
72096;BME280;59968;51.084;16.748;2023-09-18T17:16:35;99470.48;;;25.29;56.85
72096;BME280;59968;51.084;16.748;2023-09-18T17:19:04;99472.80;;;25.26;57.25